Time;durP1;ratioP1;P1;durP2;ratioP2;P2;SDS_P1;SDS_P2;PMS_P1;PMS_P2;Temp;Humidity;BMP_temperature;BMP_pressure;BME280_temperature;BME280_humidity;BME280_pressure;Samples;Min_cycle;Max_cycle;Signal;HPM_P1;HPM_P2
2023/05/27 00:06:12;;;;;;;;;;;17.70;71.10;;;;;;21087516;28;19924;-56
2023/05/27 00:16:13;;;;;;;;;;;17.60;71.00;;;;;;21086603;28;19928;-57
2023/05/27 00:26:14;;;;;;;;;;;17.60;71.10;;;;;;21084066;28;19924;-57
2023/05/27 00:36:14;;;;;;;;;;;17.50;70.90;;;;;;21084417;28;20421;-56
2023/05/27 00:46:15;;;;;;;;;;;17.40;70.80;;;;;;21084431;28;19924;-57
2023/05/27 00:56:15;;;;;;;;;;;17.40;71.00;;;;;;21083850;28;19924;-57
2023/05/27 01:06:31;;;;;;;;;;;17.40;71.00;;;;;;21083179;28;19928;-57
2023/05/27 01:16:32;;;;;;;;;;;17.40;70.80;;;;;;21081015;28;19932;-57
2023/05/27 01:26:33;;;;;;;;;;;17.40;70.40;;;;;;21082494;28;20036;-57
2023/05/27 01:36:37;;;;;;;;;;;17.40;70.60;;;;;;21081108;28;20292;-58
2023/05/27 01:46:41;;;;;;;;;;;17.40;70.60;;;;;;21079560;28;20473;-57
2023/05/27 01:56:42;;;;;;;;;;;17.40;70.10;;;;;;21080313;28;19931;-57
2023/05/27 02:06:42;;;;;;;;;;;17.30;69.70;;;;;;21078583;28;20084;-58
2023/05/27 02:16:43;;;;;;;;;;;17.20;70.00;;;;;;21078223;28;19928;-57
2023/05/27 02:26:43;;;;;;;;;;;17.20;70.10;;;;;;21077978;28;20426;-55
2023/05/27 02:36:44;;;;;;;;;;;17.20;70.40;;;;;;21078907;28;19971;-57
2023/05/27 02:46:45;;;;;;;;;;;17.20;70.20;;;;;;21078075;28;20019;-57
2023/05/27 02:56:45;;;;;;;;;;;17.20;70.00;;;;;;21080485;28;19924;-57
2023/05/27 03:06:47;;;;;;;;;;;17.20;69.70;;;;;;21089762;28;19932;-58
2023/05/27 03:16:47;;;;;;;;;;;17.30;69.00;;;;;;21090416;28;19924;-56
2023/05/27 03:26:48;;;;;;;;;;;17.20;68.20;;;;;;21090494;28;19930;-57
2023/05/27 03:36:50;;;;;;;;;;;17.20;68.70;;;;;;21087805;28;20242;-56
2023/05/27 03:46:50;;;;;;;;;;;17.10;69.10;;;;;;21088386;28;19924;-57
2023/05/27 03:56:51;;;;;;;;;;;17.00;69.50;;;;;;21086356;28;20012;-56
2023/05/27 04:06:53;;;;;;;;;;;17.00;69.20;;;;;;21085906;28;20439;-57
2023/05/27 04:16:53;;;;;;;;;;;16.80;69.50;;;;;;21084721;28;19935;-58
2023/05/27 04:26:54;;;;;;;;;;;16.80;69.00;;;;;;21083775;28;20330;-59
2023/05/27 04:36:55;;;;;;;;;;;16.70;69.20;;;;;;21083158;28;19978;-57
2023/05/27 04:46:56;;;;;;;;;;;16.70;69.40;;;;;;21081690;28;20532;-58
2023/05/27 04:56:57;;;;;;;;;;;16.60;69.10;;;;;;21082311;28;19968;-57
2023/05/27 05:06:57;;;;;;;;;;;16.60;69.40;;;;;;21080329;28;19924;-57
2023/05/27 05:16:58;;;;;;;;;;;16.60;69.40;;;;;;21080106;28;19924;-60
2023/05/27 05:26:58;;;;;;;;;;;16.40;69.80;;;;;;21079090;28;19924;-56
2023/05/27 05:36:59;;;;;;;;;;;16.50;69.50;;;;;;21079682;28;20018;-58
2023/05/27 05:47:00;;;;;;;;;;;16.60;69.40;;;;;;21078895;28;19924;-58
2023/05/27 05:57:02;;;;;;;;;;;16.50;69.50;;;;;;21079117;28;19931;-58
2023/05/27 06:07:03;;;;;;;;;;;16.70;68.90;;;;;;21078466;28;20356;-57
2023/05/27 06:17:03;;;;;;;;;;;16.70;69.10;;;;;;21077844;28;19959;-58
2023/05/27 06:27:04;;;;;;;;;;;17.00;68.10;;;;;;21076212;28;19967;-58
2023/05/27 06:37:05;;;;;;;;;;;17.10;67.30;;;;;;21090916;28;20041;-57
2023/05/27 06:47:05;;;;;;;;;;;17.20;66.10;;;;;;21092849;28;20016;-56
2023/05/27 06:57:06;;;;;;;;;;;17.40;65.60;;;;;;21091232;28;19924;-58
2023/05/27 07:07:07;;;;;;;;;;;17.70;63.80;;;;;;21091737;28;19971;-59
2023/05/27 07:17:07;;;;;;;;;;;18.10;62.20;;;;;;21090290;28;19960;-57
2023/05/27 07:27:08;;;;;;;;;;;18.20;61.90;;;;;;21088076;28;20007;-58
2023/05/27 07:37:08;;;;;;;;;;;18.40;60.70;;;;;;21087303;28;19982;-57
2023/05/27 07:47:09;;;;;;;;;;;18.60;59.60;;;;;;21086297;28;19975;-57
2023/05/27 07:57:10;;;;;;;;;;;18.70;59.50;;;;;;21086777;28;20001;-58
2023/05/27 08:07:10;;;;;;;;;;;19.00;58.60;;;;;;21086339;28;19931;-57
2023/05/27 08:17:11;;;;;;;;;;;19.10;57.60;;;;;;21084463;28;19970;-57
2023/05/27 08:27:15;;;;;;;;;;;19.40;56.70;;;;;;21083138;28;20449;-57
2023/05/27 08:37:16;;;;;;;;;;;19.40;56.20;;;;;;21083914;28;19969;-57
2023/05/27 08:47:17;;;;;;;;;;;19.40;56.60;;;;;;21082242;28;19924;-57
2023/05/27 08:57:19;;;;;;;;;;;19.50;56.90;;;;;;21081514;28;20365;-57
2023/05/27 09:07:20;;;;;;;;;;;19.70;56.30;;;;;;21081947;28;20293;-56
2023/05/27 09:17:22;;;;;;;;;;;20.20;54.90;;;;;;21080659;28;19924;-57
2023/05/27 09:27:27;;;;;;;;;;;20.10;54.60;;;;;;21070342;28;20015;-57
2023/05/27 09:37:34;;;;;;;;;;;20.40;54.50;;;;;;21078208;28;20015;-59
2023/05/27 09:47:37;;;;;;;;;;;20.70;53.00;;;;;;21078815;28;19924;-56
2023/05/27 09:57:38;;;;;;;;;;;20.90;53.30;;;;;;21077867;28;19930;-59
2023/05/27 10:07:40;;;;;;;;;;;21.30;52.10;;;;;;21087150;28;19971;-60
2023/05/27 10:17:41;;;;;;;;;;;21.50;52.00;;;;;;21096301;28;20388;-58
2023/05/27 10:27:45;;;;;;;;;;;21.90;50.40;;;;;;21093820;28;19924;-58
2023/05/27 10:37:46;;;;;;;;;;;22.10;50.00;;;;;;21093068;28;19924;-59
2023/05/27 10:47:47;;;;;;;;;;;22.20;49.60;;;;;;21092191;28;19924;-58
2023/05/27 10:57:48;;;;;;;;;;;22.00;50.30;;;;;;21092134;28;19970;-59
2023/05/27 11:07:48;;;;;;;;;;;22.30;49.60;;;;;;21089934;28;20009;-59
2023/05/27 11:17:49;;;;;;;;;;;22.20;50.10;;;;;;21090897;28;20396;-58
2023/05/27 11:27:50;;;;;;;;;;;22.40;49.40;;;;;;21089153;28;19928;-57
2023/05/27 11:37:51;;;;;;;;;;;22.30;49.60;;;;;;21089585;28;20373;-58
2023/05/27 11:47:53;;;;;;;;;;;22.40;49.40;;;;;;21088844;28;19931;-58
2023/05/27 11:57:54;;;;;;;;;;;22.40;50.10;;;;;;21085254;28;19988;-58
2023/05/27 12:07:54;;;;;;;;;;;22.60;49.20;;;;;;21086331;28;19981;-59
2023/05/27 12:17:55;;;;;;;;;;;22.40;49.80;;;;;;21085354;28;20334;-58
2023/05/27 12:27:56;;;;;;;;;;;22.70;49.60;;;;;;21082612;28;19930;-59
2023/05/27 12:37:57;;;;;;;;;;;22.70;49.20;;;;;;21083808;28;20408;-58
2023/05/27 12:48:00;;;;;;;;;;;23.00;49.00;;;;;;21081760;28;19950;-59
2023/05/27 12:58:01;;;;;;;;;;;23.00;48.00;;;;;;21082878;28;19977;-58
2023/05/27 13:08:04;;;;;;;;;;;23.30;47.90;;;;;;21082251;28;20426;-58
2023/05/27 13:18:06;;;;;;;;;;;23.40;46.60;;;;;;21081204;28;19936;-58
2023/05/27 13:28:07;;;;;;;;;;;23.50;46.80;;;;;;21079242;28;20343;-58
2023/05/27 13:38:12;;;;;;;;;;;23.50;48.20;;;;;;21079684;28;19924;-58
2023/05/27 13:48:12;;;;;;;;;;;23.50;47.80;;;;;;21079236;28;19924;-58
2023/05/27 13:58:13;;;;;;;;;;;23.30;50.40;;;;;;21078458;28;20017;-57
2023/05/27 14:08:14;;;;;;;;;;;23.00;58.20;;;;;;21078267;28;19993;-58
2023/05/27 14:18:14;;;;;;;;;;;22.70;61.60;;;;;;21077640;28;19971;-57
2023/05/27 14:28:15;;;;;;;;;;;22.20;62.80;;;;;;21076981;28;20410;-57
2023/05/27 14:38:16;;;;;;;;;;;21.90;63.40;;;;;;21078529;28;20372;-58
2023/05/27 14:48:17;;;;;;;;;;;21.70;65.70;;;;;;21077579;28;20349;-58
2023/05/27 14:58:18;;;;;;;;;;;21.50;62.90;;;;;;21091126;28;19928;-58
2023/05/27 15:08:18;;;;;;;;;;;21.50;64.30;;;;;;21090759;28;19924;-58
2023/05/27 15:18:19;;;;;;;;;;;21.20;62.70;;;;;;21091053;28;19983;-58
2023/05/27 15:28:20;;;;;;;;;;;21.20;63.40;;;;;;21090182;28;19924;-58
2023/05/27 15:38:21;;;;;;;;;;;21.10;63.20;;;;;;21089334;28;19924;-57
2023/05/27 15:48:21;;;;;;;;;;;21.20;63.60;;;;;;21088228;28;19924;-57
2023/05/27 15:58:22;;;;;;;;;;;21.30;61.30;;;;;;21087674;28;19931;-58
2023/05/27 16:08:23;;;;;;;;;;;21.40;60.10;;;;;;21085762;28;19924;-58
2023/05/27 16:18:23;;;;;;;;;;;21.40;60.50;;;;;;21084652;28;19924;-58
2023/05/27 16:28:24;;;;;;;;;;;21.50;59.40;;;;;;21085526;28;20373;-58
2023/05/27 16:38:25;;;;;;;;;;;21.60;60.00;;;;;;21083851;28;19928;-59
2023/05/27 16:48:25;;;;;;;;;;;21.70;60.80;;;;;;21082240;28;19924;-57
2023/05/27 16:58:26;;;;;;;;;;;21.60;60.50;;;;;;21082359;28;20060;-58
2023/05/27 17:08:27;;;;;;;;;;;21.60;60.60;;;;;;21082432;28;19924;-58
2023/05/27 17:18:28;;;;;;;;;;;21.60;59.80;;;;;;21080265;28;19978;-58
2023/05/27 17:28:29;;;;;;;;;;;21.60;59.70;;;;;;21080740;28;20462;-58
2023/05/27 17:38:30;;;;;;;;;;;21.60;60.20;;;;;;21080207;28;19924;-57
2023/05/27 17:48:30;;;;;;;;;;;21.60;59.80;;;;;;21080011;28;19977;-58
2023/05/27 17:58:31;;;;;;;;;;;21.60;59.60;;;;;;21079282;28;20296;-58
2023/05/27 18:08:32;;;;;;;;;;;21.60;61.30;;;;;;21078470;28;19984;-57
2023/05/27 18:18:33;;;;;;;;;;;21.50;61.40;;;;;;21078173;28;20053;-58
2023/05/27 18:28:33;;;;;;;;;;;21.30;61.90;;;;;;21083570;28;19924;-57
2023/05/27 18:38:35;;;;;;;;;;;21.20;62.30;;;;;;21093965;28;20404;-58
2023/05/27 18:48:36;;;;;;;;;;;21.20;62.20;;;;;;21093201;28;20003;-58
2023/05/27 18:58:36;;;;;;;;;;;21.10;62.30;;;;;;21092677;28;19956;-58
2023/05/27 19:08:37;;;;;;;;;;;20.70;65.10;;;;;;21089884;28;19930;-56
2023/05/27 19:18:38;;;;;;;;;;;20.70;65.10;;;;;;21089419;28;20361;-57
2023/05/27 19:28:42;;;;;;;;;;;20.40;65.90;;;;;;21087542;28;19924;-55
2023/05/27 19:38:43;;;;;;;;;;;20.30;65.50;;;;;;21087946;28;19976;-58
2023/05/27 19:48:43;;;;;;;;;;;20.20;65.60;;;;;;21086712;28;20348;-58
2023/05/27 19:58:44;;;;;;;;;;;19.90;66.00;;;;;;21087637;28;20314;-58
2023/05/27 20:08:44;;;;;;;;;;;19.80;66.10;;;;;;21086738;28;20392;-58
2023/05/27 20:18:45;;;;;;;;;;;19.70;66.40;;;;;;21085244;28;19924;-58
2023/05/27 20:28:46;;;;;;;;;;;19.70;66.40;;;;;;21084174;28;19924;-57
2023/05/27 20:38:47;;;;;;;;;;;19.70;66.40;;;;;;21085098;28;19924;-57
2023/05/27 20:48:48;;;;;;;;;;;19.70;66.40;;;;;;21081386;28;19931;-57
2023/05/27 20:58:48;;;;;;;;;;;19.70;67.20;;;;;;21081226;28;20407;-57
2023/05/27 21:08:49;;;;;;;;;;;19.50;69.80;;;;;;21081557;28;20374;-57
2023/05/27 21:18:50;;;;;;;;;;;19.40;71.50;;;;;;21079636;28;19968;-57
2023/05/27 21:28:50;;;;;;;;;;;19.40;70.50;;;;;;21080355;28;19924;-56
2023/05/27 21:38:51;;;;;;;;;;;18.00;69.90;;;;;;21080053;28;19960;-57
2023/05/27 21:48:52;;;;;;;;;;;17.60;71.90;;;;;;21079446;28;20389;-57
2023/05/27 21:58:53;;;;;;;;;;;17.30;73.80;;;;;;21079772;28;19924;-57
2023/05/27 22:08:54;;;;;;;;;;;17.00;74.70;;;;;;21079747;28;19971;-57
2023/05/27 22:18:54;;;;;;;;;;;16.90;75.90;;;;;;21078176;28;19931;-58
2023/05/27 22:28:55;;;;;;;;;;;16.80;76.50;;;;;;21079151;28;20384;-57
2023/05/27 22:38:56;;;;;;;;;;;16.80;76.30;;;;;;21078672;28;19924;-57
2023/05/27 22:48:56;;;;;;;;;;;16.90;75.80;;;;;;21078270;28;19993;-57
2023/05/27 22:58:57;;;;;;;;;;;16.90;75.70;;;;;;21078092;28;19924;-56
2023/05/27 23:08:57;;;;;;;;;;;16.80;76.30;;;;;;21076288;28;19924;-56
2023/05/27 23:18:58;;;;;;;;;;;16.80;75.50;;;;;;21090157;28;19924;-56
2023/05/27 23:28:59;;;;;;;;;;;16.70;76.40;;;;;;21091818;28;20009;-58
2023/05/27 23:39:00;;;;;;;;;;;16.90;76.20;;;;;;21090621;28;19924;-56
2023/05/27 23:49:00;;;;;;;;;;;16.80;75.60;;;;;;21090055;28;19979;-55
2023/05/27 23:59:01;;;;;;;;;;;16.80;75.80;;;;;;21089296;28;19955;-56
